createdAt,value
2019-02-09T00:00:39.064Z,3.08
2019-02-09T00:03:08.230Z,2.40
2019-02-09T00:05:36.559Z,2.67
2019-02-09T00:08:07.167Z,2.50
2019-02-09T00:10:35.431Z,2.80
2019-02-09T00:13:03.723Z,3.22
2019-02-09T00:15:31.988Z,2.70
2019-02-09T00:18:00.237Z,2.45
2019-02-09T00:20:28.511Z,2.87
2019-02-09T00:22:58.375Z,3.00
2019-02-09T00:25:26.724Z,2.42
2019-02-09T00:27:54.950Z,3.02
2019-02-09T00:30:24.161Z,2.60
2019-02-09T00:32:52.447Z,3.05
2019-02-09T00:35:23.528Z,2.60
2019-02-09T00:37:51.762Z,3.00
2019-02-09T00:40:28.546Z,3.17
2019-02-09T00:42:56.789Z,3.35
2019-02-09T00:45:29.575Z,3.50
2019-02-09T00:47:57.815Z,3.55
2019-02-09T00:50:26.199Z,3.72
2019-02-09T00:52:54.442Z,3.05
2019-02-09T00:55:26.732Z,3.90
2019-02-09T00:57:56.737Z,3.92
2019-02-09T01:00:29.194Z,3.92
2019-02-09T01:02:57.477Z,3.70
2019-02-09T01:05:28.843Z,3.80
2019-02-09T01:07:57.095Z,4.20
2019-02-09T01:10:26.682Z,3.87
2019-02-09T01:12:54.932Z,3.58
2019-02-09T01:15:23.207Z,3.77
2019-02-09T01:17:51.469Z,3.77
2019-02-09T01:20:24.567Z,3.58
2019-02-09T01:22:53.491Z,3.90
2019-02-09T01:25:21.809Z,3.33
2019-02-09T01:27:50.068Z,3.77
2019-02-09T01:30:23.605Z,3.12
2019-02-09T01:32:51.872Z,4.15
2019-02-09T01:35:20.249Z,3.52
2019-02-09T01:37:48.924Z,3.65
2019-02-09T01:40:22.655Z,4.47
2019-02-09T01:42:50.951Z,3.62
2019-02-09T01:45:27.476Z,4.12
2019-02-09T01:47:55.736Z,4.28
2019-02-09T01:50:25.246Z,3.92
2019-02-09T01:52:54.166Z,3.70
2019-02-09T01:55:22.516Z,4.60
2019-02-09T01:57:50.788Z,4.87
2019-02-09T02:00:30.430Z,5.22
2019-02-09T02:02:58.712Z,4.50
2019-02-09T02:05:26.970Z,4.97
2019-02-09T02:07:55.234Z,4.78
2019-02-09T02:10:28.680Z,4.53
2019-02-09T02:12:56.938Z,4.75
2019-02-09T02:15:25.842Z,4.67
2019-02-09T02:17:54.086Z,4.62
2019-02-09T02:20:28.518Z,4.92
2019-02-09T02:22:56.802Z,4.75
2019-02-09T02:25:25.058Z,5.17
2019-02-09T02:27:53.344Z,5.17
2019-02-09T02:30:27.030Z,4.78
2019-02-09T02:32:55.275Z,5.28
2019-02-09T02:35:23.534Z,4.90
2019-02-09T02:37:51.856Z,5.72
2019-02-09T02:40:21.685Z,4.92
2019-02-09T02:42:50.021Z,4.35
2019-02-09T02:45:19.950Z,4.75
2019-02-09T02:47:48.281Z,5.30
2019-02-09T02:50:19.169Z,5.47
2019-02-09T02:52:47.425Z,5.35
2019-02-09T02:55:18.419Z,5.65
2019-02-09T02:57:46.682Z,5.47
2019-02-09T03:00:32.050Z,5.33
2019-02-09T03:02:58.775Z,5.53
2019-02-09T03:05:27.027Z,4.92
2019-02-09T03:07:55.554Z,5.40
2019-02-09T03:10:23.890Z,5.40
2019-02-09T03:12:52.328Z,5.28
2019-02-09T03:15:31.893Z,4.90
2019-02-09T03:18:00.154Z,4.40
2019-02-09T03:20:28.394Z,5.40
2019-02-09T03:22:56.679Z,4.87
2019-02-09T03:25:30.085Z,5.08
2019-02-09T03:27:58.357Z,4.65
2019-02-09T03:30:28.991Z,4.35
2019-02-09T03:32:57.346Z,3.83
2019-02-09T03:35:25.603Z,4.35
2019-02-09T03:37:53.859Z,4.33
2019-02-09T03:40:26.551Z,4.20
2019-02-09T03:42:54.845Z,4.37
2019-02-09T03:45:31.367Z,4.10
2019-02-09T03:47:59.729Z,4.58
2019-02-09T03:50:30.453Z,4.15
2019-02-09T03:52:58.745Z,4.15
2019-02-09T03:55:27.018Z,4.15
2019-02-09T03:57:56.965Z,3.85
2019-02-09T04:00:26.932Z,4.10
2019-02-09T04:02:55.253Z,4.40
2019-02-09T04:05:23.506Z,4.67
2019-02-09T04:07:52.139Z,4.17
2019-02-09T04:10:25.110Z,4.37
2019-02-09T04:12:53.359Z,4.72
2019-02-09T04:15:23.418Z,4.53
2019-02-09T04:17:51.720Z,4.62
2019-02-09T04:20:21.390Z,4.40
2019-02-09T04:22:49.640Z,4.28
2019-02-09T04:25:19.526Z,3.67
2019-02-09T04:27:47.762Z,4.47
2019-02-09T04:30:27.014Z,3.70
2019-02-09T04:32:55.263Z,4.40
2019-02-09T04:35:23.564Z,4.50
2019-02-09T04:37:51.830Z,4.53
2019-02-09T04:40:22.384Z,4.15
2019-02-09T04:42:50.620Z,4.47
2019-02-09T04:45:20.677Z,3.67
2019-02-09T04:47:48.904Z,3.83
2019-02-09T04:50:18.053Z,4.08
2019-02-09T04:52:46.368Z,3.42
2019-02-09T04:55:17.945Z,3.47
2019-02-09T04:57:46.201Z,3.45
2019-02-09T05:00:17.764Z,3.83
2019-02-09T05:02:46.027Z,3.90
2019-02-09T05:05:14.345Z,3.60
2019-02-09T05:07:42.621Z,3.80
2019-02-09T05:10:13.656Z,3.15
2019-02-09T05:12:41.943Z,3.58
2019-02-09T05:15:12.378Z,3.30
2019-02-09T05:17:40.634Z,3.40
2019-02-09T05:20:11.655Z,3.58
2019-02-09T05:22:39.919Z,3.40
2019-02-09T05:25:10.643Z,3.30
2019-02-09T05:27:38.915Z,3.70
2019-02-09T05:30:13.552Z,3.65
2019-02-09T05:32:41.816Z,3.85
2019-02-09T05:35:10.586Z,3.37
2019-02-09T05:37:38.865Z,3.70
2019-02-09T05:40:15.660Z,4.20
2019-02-09T05:42:43.942Z,3.65
2019-02-09T05:45:15.122Z,3.85
2019-02-09T05:47:43.332Z,3.80
2019-02-09T05:50:14.519Z,3.92
2019-02-09T05:52:42.858Z,4.00
2019-02-09T05:55:11.247Z,3.72
2019-02-09T05:57:39.515Z,4.20
2019-02-09T06:00:21.512Z,4.20
2019-02-09T06:02:49.798Z,4.30
2019-02-09T06:05:18.093Z,4.00
2019-02-09T06:07:46.392Z,4.20
2019-02-09T06:10:17.382Z,4.50
2019-02-09T06:12:45.683Z,4.92
2019-02-09T06:15:17.216Z,5.28
2019-02-09T06:17:45.449Z,5.25
2019-02-09T06:20:17.109Z,4.92
2019-02-09T06:22:45.365Z,4.70
2019-02-09T06:25:14.451Z,5.17
2019-02-09T06:27:42.702Z,5.45
2019-02-09T06:30:17.136Z,5.50
2019-02-09T06:32:45.416Z,5.80
2019-02-09T06:35:13.700Z,6.28
2019-02-09T06:37:42.019Z,6.35
2019-02-09T06:40:18.847Z,6.20
2019-02-09T06:42:47.115Z,7.15
2019-02-09T06:45:20.534Z,5.40
2019-02-09T06:47:48.791Z,7.60
2019-02-09T06:50:19.738Z,8.53
2019-02-09T06:52:48.020Z,8.90
2019-02-09T06:55:16.713Z,10.40
2019-02-09T06:57:45.044Z,10.95
2019-02-09T07:00:16.595Z,11.30
2019-02-09T07:02:44.857Z,11.83
2019-02-09T07:05:18.122Z,11.48
2019-02-09T07:07:46.420Z,12.10
2019-02-09T07:10:20.881Z,11.28
2019-02-09T07:12:49.139Z,9.30
2019-02-09T07:15:20.986Z,11.00
2019-02-09T07:17:49.267Z,10.43
2019-02-09T07:20:17.575Z,9.98
2019-02-09T07:22:45.822Z,10.08
2019-02-09T07:25:17.309Z,9.33
2019-02-09T07:27:45.569Z,10.20
2019-02-09T07:30:17.182Z,9.33
2019-02-09T07:32:45.443Z,9.93
2019-02-09T07:35:14.222Z,8.68
2019-02-09T07:37:42.484Z,10.00
2019-02-09T07:40:16.073Z,8.23
2019-02-09T07:42:44.327Z,8.63
2019-02-09T07:45:17.870Z,7.72
2019-02-09T07:47:46.189Z,7.10
2019-02-09T07:50:20.016Z,7.40
2019-02-09T07:52:48.279Z,7.30
2019-02-09T07:55:18.206Z,7.45
2019-02-09T07:57:46.561Z,6.70
2019-02-09T08:00:17.880Z,6.00
2019-02-09T08:02:46.184Z,5.30
2019-02-09T08:05:14.765Z,6.30
2019-02-09T08:07:43.746Z,6.15
2019-02-09T08:10:20.764Z,5.03
2019-02-09T08:12:49.054Z,5.87
2019-02-09T08:15:23.049Z,4.30
2019-02-09T08:17:51.356Z,4.85
2019-02-09T08:20:21.707Z,4.92
2019-02-09T08:22:50.092Z,3.98
2019-02-09T08:25:20.441Z,4.03
2019-02-09T08:27:48.696Z,4.60
2019-02-09T08:30:20.106Z,4.22
2019-02-09T08:32:48.353Z,4.40
2019-02-09T08:35:16.691Z,4.67
2019-02-09T08:37:44.920Z,3.92
2019-02-09T08:40:13.980Z,4.33
2019-02-09T08:42:42.223Z,4.03
2019-02-09T08:45:16.189Z,3.60
2019-02-09T08:47:44.439Z,3.27
2019-02-09T08:50:24.601Z,3.22
2019-02-09T08:52:52.860Z,3.12
2019-02-09T08:55:21.181Z,4.03
2019-02-09T08:57:49.416Z,4.03
2019-02-09T09:00:30.058Z,4.42
2019-02-09T09:02:58.338Z,3.80
2019-02-09T09:05:26.613Z,4.28
2019-02-09T09:07:54.940Z,4.78
2019-02-09T09:10:25.536Z,3.70
2019-02-09T09:12:53.883Z,4.00
2019-02-09T09:15:25.255Z,3.98
2019-02-09T09:17:53.512Z,3.62
2019-02-09T09:20:24.783Z,3.33
2019-02-09T09:22:53.058Z,3.42
2019-02-09T09:25:21.525Z,3.12
2019-02-09T09:27:49.786Z,3.45
2019-02-09T09:30:20.841Z,3.60
2019-02-09T09:32:49.111Z,3.15
2019-02-09T09:35:17.426Z,2.90
2019-02-09T09:37:45.833Z,2.70
2019-02-09T09:40:17.452Z,3.70
2019-02-09T09:42:45.990Z,2.80
2019-02-09T09:45:17.926Z,2.75
2019-02-09T09:47:46.185Z,2.72
2019-02-09T09:50:17.469Z,3.12
2019-02-09T09:52:45.717Z,2.58
2019-02-09T09:55:14.303Z,2.83
2019-02-09T09:57:42.572Z,2.40
2019-02-09T10:00:14.117Z,3.00
2019-02-09T10:02:42.400Z,2.67
2019-02-09T10:05:10.823Z,2.47
2019-02-09T10:07:39.109Z,2.55
2019-02-09T10:10:13.383Z,2.47
2019-02-09T10:12:41.655Z,2.80
2019-02-09T10:15:15.570Z,2.80
2019-02-09T10:17:44.197Z,2.43
2019-02-09T10:20:15.399Z,3.87
2019-02-09T10:22:43.849Z,3.12
2019-02-09T10:25:12.878Z,2.45
2019-02-09T10:27:41.177Z,2.70
2019-02-09T10:30:26.648Z,2.85
2019-02-09T10:32:54.935Z,3.15
2019-02-09T10:35:23.505Z,2.90
2019-02-09T10:37:51.799Z,3.12
2019-02-09T10:40:25.399Z,2.90
2019-02-09T10:42:53.870Z,3.15
2019-02-09T10:45:23.958Z,2.90
2019-02-09T10:47:52.232Z,3.20
2019-02-09T10:50:29.562Z,3.00
2019-02-09T10:52:57.841Z,2.90
2019-02-09T10:55:26.096Z,3.30
2019-02-09T10:57:54.343Z,2.90
2019-02-09T11:00:37.152Z,2.80
2019-02-09T11:03:06.433Z,2.85
2019-02-09T11:05:34.751Z,2.77
2019-02-09T11:08:02.955Z,2.80
2019-02-09T11:10:36.416Z,2.98
2019-02-09T11:13:05.617Z,3.20
2019-02-09T11:15:33.884Z,2.95
2019-02-09T11:18:02.146Z,2.55
2019-02-09T11:20:30.441Z,3.62
2019-02-09T11:22:58.708Z,3.27
2019-02-09T11:25:27.027Z,2.90
2019-02-09T11:27:55.315Z,3.30
2019-02-09T11:30:28.438Z,3.12
2019-02-09T11:33:02.098Z,3.02
2019-02-09T11:35:26.674Z,3.27
2019-02-09T11:37:54.978Z,3.02
2019-02-09T11:40:28.568Z,3.12
2019-02-09T11:42:57.577Z,3.22
2019-02-09T11:45:30.086Z,3.25
2019-02-09T11:47:58.362Z,4.25
2019-02-09T13:36:34.825Z,2.90
2019-02-09T13:39:03.839Z,3.25
2019-02-09T13:41:32.096Z,2.95
2019-02-09T13:44:00.679Z,2.72
2019-02-09T13:46:28.946Z,2.95
2019-02-09T13:48:57.621Z,3.22
2019-02-09T13:51:26.396Z,3.20
2019-02-09T13:53:54.672Z,3.15
2019-02-09T13:56:22.830Z,3.35
2019-02-09T13:58:55.356Z,3.10
2019-02-09T14:01:30.573Z,3.15
2019-02-09T14:04:07.084Z,2.98
2019-02-09T14:06:40.009Z,3.23
2019-02-09T14:09:35.420Z,2.52
2019-02-09T14:12:07.567Z,2.50
2019-02-09T14:14:44.072Z,3.57
2019-02-09T14:19:59.424Z,2.65
2019-02-09T14:22:27.699Z,2.83
2019-02-09T14:24:55.967Z,2.58
2019-02-09T14:27:25.939Z,2.80
2019-02-09T14:29:54.215Z,2.65
2019-02-09T14:32:22.464Z,3.05
2019-02-09T14:34:50.745Z,3.40
2019-02-09T14:37:21.122Z,2.75
2019-02-09T14:39:49.387Z,2.47
2019-02-09T14:42:17.647Z,1.85
2019-02-09T14:44:45.921Z,2.00
2019-02-09T14:47:14.172Z,1.87
2019-02-09T14:49:44.389Z,2.35
2019-02-09T14:52:12.618Z,2.40
2019-02-09T14:54:45.731Z,1.52
2019-02-09T14:57:13.975Z,2.85
2019-02-09T14:59:42.256Z,2.17
2019-02-09T15:02:21.556Z,2.83
2019-02-09T15:04:49.851Z,2.77
2019-02-09T15:07:21.136Z,2.65
2019-02-09T15:09:49.460Z,3.42
2019-02-09T15:12:17.762Z,3.47
2019-02-09T15:14:46.004Z,3.20
2019-02-09T15:17:14.271Z,3.22
2019-02-09T15:19:42.527Z,3.75
2019-02-09T15:22:10.887Z,4.05
2019-02-09T15:24:39.163Z,3.67
2019-02-09T15:27:07.418Z,3.60
2019-02-09T15:29:35.671Z,3.17
2019-02-09T15:32:03.935Z,2.98
2019-02-09T15:34:32.196Z,4.08
2019-02-09T15:37:01.818Z,3.25
2019-02-09T15:39:30.195Z,3.10
2019-02-09T15:41:58.487Z,3.00
2019-02-09T15:44:26.720Z,2.95
2019-02-09T15:46:54.989Z,3.25
2019-02-09T15:49:23.232Z,3.17
2019-02-09T15:51:51.495Z,3.87
2019-02-09T15:54:20.179Z,3.95
2019-02-09T15:56:48.438Z,4.30
2019-02-09T15:59:16.707Z,4.05
2019-02-09T16:01:45.853Z,3.95
2019-02-09T16:04:18.059Z,4.30
2019-02-09T16:06:44.104Z,3.83
2019-02-09T16:09:15.186Z,3.70
2019-02-09T16:11:43.421Z,4.40
2019-02-09T16:14:11.691Z,3.87
2019-02-09T16:16:39.958Z,4.17
2019-02-09T16:19:08.216Z,3.45
2019-02-09T16:21:36.471Z,3.65
2019-02-09T16:24:04.727Z,3.87
2019-02-09T16:26:32.986Z,3.98
2019-02-09T16:29:01.249Z,3.35
2019-02-09T16:31:29.523Z,3.67
2019-02-09T16:33:57.765Z,3.60
2019-02-09T16:36:26.015Z,3.52
2019-02-09T16:38:54.337Z,4.00
2019-02-09T16:41:22.588Z,3.42
2019-02-09T16:43:50.823Z,3.70
2019-02-09T16:46:19.103Z,2.98
2019-02-09T16:48:49.492Z,3.50
2019-02-09T16:51:19.199Z,3.40
2019-02-09T16:53:47.449Z,3.33
2019-02-09T16:56:23.341Z,3.92
2019-02-09T16:58:51.717Z,3.12
2019-02-09T17:01:19.999Z,3.12
2019-02-09T17:03:51.590Z,3.33
2019-02-09T17:06:19.859Z,3.20
2019-02-09T17:08:48.122Z,3.37
2019-02-09T17:11:16.401Z,3.80
2019-02-09T17:13:44.655Z,3.35
2019-02-09T17:16:12.943Z,4.12
2019-02-09T17:18:41.202Z,4.28
2019-02-09T17:21:09.476Z,3.83
2019-02-09T17:23:40.196Z,4.15
2019-02-09T17:26:08.500Z,3.72
2019-02-09T17:28:36.777Z,3.90
2019-02-09T17:31:05.114Z,3.67
2019-02-09T17:33:33.439Z,3.92
2019-02-09T17:36:01.698Z,3.75
2019-02-09T17:38:30.003Z,3.65
2019-02-09T17:40:58.257Z,4.37
2019-02-09T17:43:26.610Z,4.67
2019-02-09T17:45:58.067Z,4.28
2019-02-09T17:48:26.332Z,4.30
2019-02-09T17:50:54.578Z,4.67
2019-02-09T17:53:22.945Z,4.25
2019-02-09T17:55:51.204Z,4.35
2019-02-09T17:58:19.491Z,4.50
2019-02-09T18:03:42.226Z,4.80
2019-02-09T18:06:10.481Z,4.58
2019-02-09T18:08:38.772Z,4.55
2019-02-09T18:11:07.050Z,4.53
2019-02-09T18:13:35.311Z,5.15
2019-02-09T18:16:05.242Z,4.80
2019-02-09T18:18:33.804Z,4.35
2019-02-09T18:21:02.068Z,4.92
2019-02-09T18:23:30.342Z,4.53
2019-02-09T18:25:58.629Z,4.80
2019-02-09T18:28:26.901Z,5.10
2019-02-09T18:30:55.183Z,5.03
2019-02-09T18:33:23.448Z,5.15
2019-02-09T18:35:51.725Z,5.08
2019-02-09T18:38:19.991Z,4.17
2019-02-09T18:40:48.350Z,4.95
2019-02-09T18:43:16.634Z,4.55
2019-02-09T18:45:44.911Z,4.87
2019-02-09T18:48:13.266Z,4.12
2019-02-09T18:50:41.528Z,4.78
2019-02-09T18:53:11.442Z,4.12
2019-02-09T18:55:39.734Z,5.58
2019-02-09T18:58:08.030Z,4.85
2019-02-09T19:00:45.992Z,4.22
2019-02-09T19:03:14.430Z,4.50
2019-02-09T19:05:45.409Z,3.80
2019-02-09T19:08:13.663Z,4.45
2019-02-09T19:10:41.962Z,4.45
2019-02-09T19:13:10.230Z,4.87
2019-02-09T19:15:38.711Z,5.58
2019-02-09T19:18:07.610Z,5.50
2019-02-09T19:20:47.749Z,5.03
2019-02-09T19:23:16.018Z,4.53
2019-02-09T19:25:44.307Z,5.45
2019-02-09T19:28:12.640Z,5.17
2019-02-09T19:30:40.913Z,5.15
2019-02-09T19:33:10.289Z,4.47
2019-02-09T19:35:38.532Z,4.10
2019-02-09T19:38:06.856Z,4.78
2019-02-09T19:40:35.242Z,4.97
2019-02-09T19:43:03.569Z,4.83
2019-02-09T19:45:33.705Z,4.55
2019-02-09T19:48:02.005Z,4.50
2019-02-09T19:50:30.357Z,4.87
2019-02-09T19:52:58.721Z,4.58
2019-02-09T19:55:29.641Z,4.22
2019-02-09T19:57:57.909Z,4.05
2019-02-09T20:00:34.423Z,4.00
2019-02-09T20:03:02.741Z,5.35
2019-02-09T20:05:31.054Z,4.78
2019-02-09T20:07:59.340Z,4.75
2019-02-09T20:10:33.149Z,4.17
2019-02-09T20:13:01.503Z,4.13
2019-02-09T20:15:29.767Z,4.00
2019-02-09T20:17:58.034Z,4.28
2019-02-09T20:20:26.311Z,4.10
2019-02-09T20:22:54.651Z,4.15
2019-02-09T20:25:24.607Z,3.98
2019-02-09T20:27:52.918Z,4.45
2019-02-09T20:30:30.371Z,4.75
2019-02-09T20:32:58.687Z,4.50
2019-02-09T20:35:28.018Z,3.80
2019-02-09T20:37:56.470Z,3.67
2019-02-09T20:40:27.510Z,4.30
2019-02-09T20:43:01.839Z,4.15
2019-02-09T20:45:25.778Z,4.05
2019-02-09T20:47:54.040Z,3.87
2019-02-09T20:50:22.408Z,3.40
2019-02-09T20:52:50.665Z,3.95
2019-02-09T20:55:20.110Z,3.90
2019-02-09T20:57:48.695Z,3.60
2019-02-09T21:00:24.859Z,4.05
2019-02-09T21:02:53.135Z,4.62
2019-02-09T21:05:21.404Z,3.87
2019-02-09T21:07:49.661Z,3.85
2019-02-09T21:10:23.924Z,4.10
2019-02-09T21:12:56.716Z,3.60
2019-02-09T21:15:27.408Z,4.17
2019-02-09T21:17:55.732Z,3.47
2019-02-09T21:20:24.200Z,3.85
2019-02-09T21:22:52.472Z,4.22
2019-02-09T21:25:35.561Z,3.60
2019-02-09T21:28:03.837Z,4.03
2019-02-09T21:30:32.085Z,3.95
2019-02-09T21:33:00.421Z,4.33
2019-02-09T21:35:30.467Z,4.28
2019-02-09T21:37:58.913Z,4.30
2019-02-09T21:40:31.146Z,4.00
2019-02-09T21:43:00.946Z,4.35
2019-02-09T21:45:29.193Z,4.35
2019-02-09T21:48:00.268Z,4.03
2019-02-09T21:50:30.762Z,3.70
2019-02-09T21:52:59.043Z,3.55
2019-02-09T21:55:27.324Z,4.05
2019-02-09T21:57:55.613Z,3.52
2019-02-09T22:00:35.652Z,3.85
2019-02-09T22:03:05.161Z,4.03
2019-02-09T22:05:33.410Z,3.77
2019-02-09T22:08:01.674Z,3.60
2019-02-09T22:10:34.942Z,3.50
2019-02-09T22:13:03.308Z,3.50
2019-02-09T22:15:38.647Z,3.50
2019-02-09T22:18:03.663Z,3.62
2019-02-09T22:20:31.924Z,3.33
2019-02-09T22:23:00.202Z,3.33
2019-02-09T22:25:29.500Z,4.15
2019-02-09T22:27:57.758Z,4.30
2019-02-09T22:30:33.017Z,4.22
2019-02-09T22:33:01.472Z,3.70
2019-02-09T22:35:30.013Z,2.92
2019-02-09T22:37:58.325Z,4.40
2019-02-09T22:40:34.791Z,4.00
2019-02-09T22:43:03.143Z,3.42
2019-02-09T22:45:31.384Z,3.33
2019-02-09T22:47:59.649Z,4.17
2019-02-09T22:50:33.323Z,3.62
2019-02-09T22:53:01.637Z,3.30
2019-02-09T22:55:29.855Z,3.33
2019-02-09T22:57:58.172Z,4.12
2019-02-09T23:00:34.138Z,3.75
2019-02-09T23:03:02.433Z,3.62
2019-02-09T23:05:45.991Z,3.80
2019-02-09T23:08:14.264Z,3.40
2019-02-09T23:10:42.528Z,3.72
2019-02-09T23:13:10.779Z,4.35
2019-02-09T23:15:39.044Z,3.47
2019-02-09T23:18:07.328Z,3.77
2019-02-09T23:20:35.585Z,3.45
2019-02-09T23:23:03.830Z,3.85
2019-02-09T23:25:32.122Z,3.33
2019-02-09T23:28:00.376Z,3.30
2019-02-09T23:30:28.656Z,3.50
2019-02-09T23:32:56.923Z,4.22
2019-02-09T23:35:25.230Z,4.25
2019-02-09T23:37:53.489Z,4.33
2019-02-09T23:40:23.253Z,3.42
2019-02-09T23:42:51.510Z,3.83
2019-02-09T23:45:19.751Z,3.58
2019-02-09T23:47:48.031Z,4.08
2019-02-09T23:50:16.310Z,4.17
2019-02-09T23:52:44.623Z,4.37
2019-02-09T23:55:12.895Z,3.90
2019-02-09T23:57:41.153Z,4.65
